createdAt,value
2022-10-25T00:01:26.482Z,94401.84
2022-10-25T00:03:53.562Z,94394.22
2022-10-25T00:06:20.399Z,94399.00
2022-10-25T00:08:47.339Z,94398.56
2022-10-25T00:11:25.579Z,94396.97
2022-10-25T00:13:53.742Z,94393.38
2022-10-25T00:16:23.347Z,94391.47
2022-10-25T00:18:50.721Z,94392.25
2022-10-25T00:21:18.381Z,94403.78
2022-10-25T00:23:45.372Z,94398.66
2022-10-25T00:26:12.882Z,94396.81
2022-10-25T00:28:39.988Z,94396.66
2022-10-25T00:31:09.622Z,94400.25
2022-10-25T00:33:37.247Z,94402.25
2022-10-25T00:36:16.171Z,94391.09
2022-10-25T00:38:44.200Z,94409.84
2022-10-25T00:41:12.479Z,94421.22
2022-10-25T00:43:53.969Z,94424.75
2022-10-25T00:46:25.149Z,94419.38
2022-10-25T00:48:55.079Z,94415.75
2022-10-25T00:51:46.951Z,94410.75
2022-10-25T00:54:17.661Z,94423.97
2022-10-25T00:56:46.740Z,94428.59
2022-10-25T00:59:16.180Z,94411.78
2022-10-25T01:01:43.198Z,94400.66
2022-10-25T01:04:12.860Z,94398.69
2022-10-25T01:06:42.176Z,94398.06
2022-10-25T01:09:17.284Z,94400.84
2022-10-25T01:11:43.991Z,94391.09
2022-10-25T01:14:13.120Z,94399.91
2022-10-25T01:17:15.487Z,94397.50
2022-10-25T01:20:05.908Z,94403.34
2022-10-25T01:22:41.440Z,94402.69
2022-10-25T01:25:14.349Z,94400.31
2022-10-25T01:28:15.079Z,94401.31
2022-10-25T01:30:59.717Z,94399.50
2022-10-25T01:33:35.220Z,94409.28
2022-10-25T01:36:10.280Z,94409.47
2022-10-25T01:38:46.107Z,94403.69
2022-10-25T01:41:26.747Z,94401.16
2022-10-25T01:44:20.823Z,94405.56
2022-10-25T01:46:54.249Z,94402.19
2022-10-25T01:49:27.542Z,94412.38
2022-10-25T01:51:54.364Z,94403.63
2022-10-25T01:54:23.468Z,94399.66
2022-10-25T01:57:27.907Z,94408.44
2022-10-25T02:00:23.721Z,94408.41
2022-10-25T02:03:16.580Z,94397.66
2022-10-25T02:06:02.082Z,94398.03
2022-10-25T02:08:31.279Z,94397.16
2022-10-25T02:11:22.959Z,94391.16
2022-10-25T02:14:12.799Z,94387.78
2022-10-25T02:16:54.287Z,94391.38
2022-10-25T02:19:25.487Z,94385.59
2022-10-25T02:21:52.559Z,94381.22
2022-10-25T02:24:21.980Z,94394.97
2022-10-25T02:26:50.385Z,94388.56
2022-10-25T02:29:18.780Z,94376.81
2022-10-25T02:31:45.895Z,94387.94
2022-10-25T02:34:12.941Z,94377.97
2022-10-25T02:36:39.699Z,94374.56
2022-10-25T02:39:07.460Z,94376.00
2022-10-25T02:41:34.527Z,94378.59
2022-10-25T02:44:01.327Z,94373.25
2022-10-25T02:46:28.076Z,94381.84
2022-10-25T02:48:54.814Z,94378.66
2022-10-25T02:51:21.700Z,94370.06
2022-10-25T02:53:48.769Z,94383.22
2022-10-25T02:56:21.128Z,94383.63
2022-10-25T02:58:49.448Z,94383.47
2022-10-25T03:01:17.812Z,94381.69
2022-10-25T03:03:45.359Z,94381.69
2022-10-25T03:06:12.442Z,94380.03
2022-10-25T03:08:40.069Z,94385.22
2022-10-25T03:11:07.379Z,94398.19
2022-10-25T03:13:34.340Z,94388.81
2022-10-25T03:16:01.142Z,94397.66
2022-10-25T03:18:28.059Z,94388.47
2022-10-25T03:20:59.381Z,94392.41
2022-10-25T03:23:27.020Z,94388.41
2022-10-25T03:25:54.828Z,94390.41
2022-10-25T03:28:21.919Z,94389.22
2022-10-25T03:30:48.648Z,94400.66
2022-10-25T03:33:15.467Z,94397.25
2022-10-25T03:35:42.260Z,94394.84
2022-10-25T03:38:09.020Z,94396.44
2022-10-25T03:40:35.802Z,94400.06
2022-10-25T03:43:02.568Z,94384.28
2022-10-25T03:45:29.440Z,94382.69
2022-10-25T03:47:56.161Z,94384.28
2022-10-25T03:50:22.879Z,94386.88
2022-10-25T03:52:49.609Z,94383.72
2022-10-25T03:55:16.441Z,94381.31
2022-10-25T03:57:43.262Z,94385.34
2022-10-25T04:00:10.787Z,94378.59
2022-10-25T04:02:37.600Z,94381.56
2022-10-25T04:05:05.577Z,94377.03
2022-10-25T04:07:32.439Z,94379.38
2022-10-25T04:09:59.201Z,94381.59
2022-10-25T04:12:26.039Z,94379.84
2022-10-25T04:14:52.779Z,94375.44
2022-10-25T04:17:19.501Z,94377.25
2022-10-25T04:19:51.376Z,94375.81
2022-10-25T04:22:17.940Z,94377.06
2022-10-25T04:24:44.573Z,94377.03
2022-10-25T04:27:11.174Z,94369.41
2022-10-25T04:29:37.946Z,94372.59
2022-10-25T04:32:05.439Z,94386.97
2022-10-25T04:34:32.252Z,94386.81
2022-10-25T04:36:58.991Z,94383.03
2022-10-25T04:39:26.446Z,94381.44
2022-10-25T04:41:53.046Z,94390.00
2022-10-25T04:44:19.773Z,94382.59
2022-10-25T04:46:48.751Z,94393.56
2022-10-25T04:49:16.479Z,94391.94
2022-10-25T04:51:43.459Z,94391.34
2022-10-25T04:54:12.325Z,94391.34
2022-10-25T04:56:39.414Z,94396.53
2022-10-25T04:59:06.225Z,94396.31
2022-10-25T05:01:32.939Z,94397.69
2022-10-25T05:03:59.711Z,94404.84
2022-10-25T05:06:27.734Z,94399.25
2022-10-25T05:08:54.933Z,94407.63
2022-10-25T05:11:24.363Z,94400.84
2022-10-25T05:13:51.141Z,94410.22
2022-10-25T05:16:22.493Z,94414.63
2022-10-25T05:18:50.336Z,94407.25
2022-10-25T05:21:18.453Z,94409.03
2022-10-25T05:23:45.497Z,94426.00
2022-10-25T05:26:17.948Z,94428.00
2022-10-25T05:28:47.134Z,94424.41
2022-10-25T05:31:24.836Z,94429.59
2022-10-25T05:33:53.385Z,94424.84
2022-10-25T05:36:20.556Z,94425.25
2022-10-25T05:38:47.350Z,94433.81
2022-10-25T05:41:15.607Z,94435.81
2022-10-25T05:43:43.002Z,94441.19
2022-10-25T05:46:21.049Z,94440.81
2022-10-25T05:48:49.347Z,94448.41
2022-10-25T05:51:32.361Z,94445.59
2022-10-25T05:54:02.987Z,94444.97
2022-10-25T05:56:30.943Z,94448.34
2022-10-25T05:58:58.081Z,94447.94
2022-10-25T06:01:26.748Z,94449.72
2022-10-25T06:03:55.327Z,94447.13
2022-10-25T06:06:22.644Z,94455.50
2022-10-25T06:08:49.469Z,94459.50
2022-10-25T06:11:20.005Z,94450.31
2022-10-25T06:13:47.081Z,94446.53
2022-10-25T06:16:18.766Z,94450.47
2022-10-25T06:18:46.122Z,94454.31
2022-10-25T06:21:14.743Z,94460.69
2022-10-25T06:23:41.965Z,94467.47
2022-10-25T06:26:15.875Z,94471.47
2022-10-25T06:28:43.014Z,94471.88
2022-10-25T06:31:17.989Z,94479.47
2022-10-25T06:33:45.025Z,94476.47
2022-10-25T06:36:17.678Z,94486.44
2022-10-25T06:38:45.456Z,94491.00
2022-10-25T06:41:15.383Z,94481.81
2022-10-25T06:43:42.109Z,94484.00
2022-10-25T06:46:40.607Z,94488.97
2022-10-25T06:49:19.294Z,94491.13
2022-10-25T06:51:45.966Z,94492.50
2022-10-25T06:54:12.654Z,94483.31
2022-10-25T06:56:39.454Z,94490.44
2022-10-25T06:59:07.526Z,94492.22
2022-10-25T07:01:34.709Z,94493.63
2022-10-25T07:04:02.908Z,94499.81
2022-10-25T07:06:35.918Z,94506.25
2022-10-25T07:09:05.386Z,94516.41
2022-10-25T07:11:32.999Z,94507.81
2022-10-25T07:14:00.543Z,94516.00
2022-10-25T07:16:28.413Z,94515.41
2022-10-25T07:18:59.705Z,94504.41
2022-10-25T07:21:27.213Z,94507.81
2022-10-25T07:23:54.421Z,94519.78
2022-10-25T07:26:22.515Z,94518.38
2022-10-25T07:28:50.683Z,94525.38
2022-10-25T07:31:26.176Z,94516.66
2022-10-25T07:33:54.175Z,94523.59
2022-10-25T07:36:21.265Z,94522.38
2022-10-25T07:38:48.095Z,94530.31
2022-10-25T07:41:14.916Z,94528.72
2022-10-25T07:43:41.654Z,94533.56
2022-10-25T07:46:08.784Z,94545.72
2022-10-25T07:48:35.609Z,94533.56
2022-10-25T07:51:07.837Z,94544.72
2022-10-25T07:53:35.057Z,94542.53
2022-10-25T07:56:01.846Z,94549.72
2022-10-25T07:58:28.595Z,94547.06
2022-10-25T08:01:07.038Z,94551.47
2022-10-25T08:03:33.897Z,94550.66
2022-10-25T08:06:01.333Z,94544.63
2022-10-25T08:08:28.708Z,94553.19
2022-10-25T08:10:55.499Z,94556.13
2022-10-25T08:13:22.534Z,94548.31
2022-10-25T08:15:53.748Z,94542.94
2022-10-25T08:18:21.004Z,94548.72
2022-10-25T08:21:03.982Z,94541.69
2022-10-25T08:23:32.168Z,94541.38
2022-10-25T08:25:59.563Z,94530.28
2022-10-25T08:28:26.419Z,94538.47
2022-10-25T08:30:56.301Z,94540.25
2022-10-25T08:33:23.821Z,94553.09
2022-10-25T08:35:50.608Z,94538.38
2022-10-25T08:38:17.321Z,94544.59
2022-10-25T08:41:16.362Z,94548.22
2022-10-25T08:44:05.688Z,94542.72
2022-10-25T08:46:43.915Z,94546.63
2022-10-25T08:49:20.094Z,94542.34
2022-10-25T08:51:48.900Z,94542.41
2022-10-25T08:54:20.067Z,94546.88
2022-10-25T08:57:03.394Z,94537.56
2022-10-25T08:59:36.014Z,94533.28
2022-10-25T09:02:03.111Z,94534.00
2022-10-25T09:04:30.736Z,94517.56
2022-10-25T09:07:28.764Z,94518.59
2022-10-25T09:10:22.216Z,94522.38
2022-10-25T09:13:20.217Z,94511.34
2022-10-25T09:16:05.096Z,94525.75
2022-10-25T09:18:51.571Z,94527.56
2022-10-25T09:21:23.067Z,94526.28
2022-10-25T09:24:02.219Z,94533.47
2022-10-25T09:26:40.116Z,94534.47
2022-10-25T09:29:22.644Z,94534.00
2022-10-25T09:31:52.284Z,94540.97
2022-10-25T09:34:22.348Z,94537.44
2022-10-25T09:36:52.924Z,94539.06
2022-10-25T09:39:23.588Z,94543.31
2022-10-25T09:41:53.109Z,94545.31
2022-10-25T09:44:42.438Z,94547.06
2022-10-25T09:47:28.547Z,94548.81
2022-10-25T09:50:24.338Z,94547.75
2022-10-25T09:53:14.900Z,94546.22
2022-10-25T09:55:54.384Z,94536.28
2022-10-25T09:58:34.858Z,94553.56
2022-10-25T10:01:05.323Z,94564.91
2022-10-25T10:03:35.473Z,94554.63
2022-10-25T10:06:35.864Z,94561.59
2022-10-25T10:09:13.627Z,94555.06
2022-10-25T10:11:41.787Z,94555.28
2022-10-25T10:14:29.066Z,94563.25
2022-10-25T10:16:57.173Z,94555.50
2022-10-25T10:19:25.980Z,94554.94
2022-10-25T10:22:13.286Z,94558.69
2022-10-25T10:24:41.496Z,94560.00
2022-10-25T10:27:24.635Z,94555.56
2022-10-25T10:30:07.588Z,94554.16
2022-10-25T10:32:36.203Z,94555.28
2022-10-25T10:35:05.654Z,94547.72
2022-10-25T10:37:33.746Z,94546.53
2022-10-25T10:40:01.735Z,94542.97
2022-10-25T10:42:37.164Z,94547.25
2022-10-25T10:45:09.562Z,94549.31
2022-10-25T10:47:42.285Z,94547.63
2022-10-25T10:50:21.046Z,94537.31
2022-10-25T10:52:55.210Z,94540.97
2022-10-25T10:55:30.049Z,94551.84
2022-10-25T10:58:02.126Z,94544.28
2022-10-25T11:00:30.649Z,94536.19
2022-10-25T11:02:57.438Z,94547.38
2022-10-25T11:05:32.600Z,94536.44
2022-10-25T11:08:02.507Z,94528.16
2022-10-25T11:10:33.654Z,94530.94
2022-10-25T11:13:17.456Z,94539.53
2022-10-25T11:16:18.893Z,94537.16
2022-10-25T11:19:09.586Z,94532.88
2022-10-25T11:22:20.591Z,94536.72
2022-10-25T11:25:02.483Z,94525.88
2022-10-25T11:27:52.225Z,94520.28
2022-10-25T11:30:28.105Z,94529.56
2022-10-25T11:33:13.115Z,94538.72
2022-10-25T11:36:17.323Z,94532.50
2022-10-25T11:39:04.423Z,94511.75
2022-10-25T11:41:54.467Z,94520.09
2022-10-25T11:44:26.247Z,94513.63
2022-10-25T11:47:34.565Z,94507.72
2022-10-25T11:50:17.386Z,94516.88
2022-10-25T11:52:47.196Z,94517.66
2022-10-25T11:55:48.765Z,94513.06
2022-10-25T11:58:30.636Z,94517.31
2022-10-25T12:01:25.552Z,94521.00
2022-10-25T12:04:01.001Z,94514.41
2022-10-25T12:06:51.555Z,94505.88
2022-10-25T12:09:41.455Z,94502.47
2022-10-25T12:12:17.881Z,94501.81
2022-10-25T12:14:49.671Z,94496.63
2022-10-25T12:17:30.601Z,94495.09
2022-10-25T12:19:59.863Z,94486.81
2022-10-25T12:22:30.167Z,94484.16
2022-10-25T12:25:03.476Z,94483.03
2022-10-25T12:27:30.947Z,94494.09
2022-10-25T12:30:04.874Z,94492.66
2022-10-25T12:32:39.166Z,94503.97
2022-10-25T12:35:18.773Z,94491.22
2022-10-25T12:37:52.796Z,94488.19
2022-10-25T12:40:22.473Z,94491.34
2022-10-25T12:42:56.195Z,94482.59
2022-10-25T12:45:41.219Z,94470.53
2022-10-25T12:48:24.046Z,94473.44
2022-10-25T12:51:14.066Z,94471.41
2022-10-25T12:54:12.017Z,94471.06
2022-10-25T12:56:53.326Z,94463.75
2022-10-25T12:59:38.294Z,94465.03
2022-10-25T13:02:23.596Z,94456.94
2022-10-25T13:05:21.387Z,94460.34
2022-10-25T13:07:48.936Z,94461.72
2022-10-25T13:10:19.148Z,94468.28
2022-10-25T13:13:20.178Z,94460.94
2022-10-25T13:15:50.427Z,94465.06
2022-10-25T13:18:29.623Z,94463.28
2022-10-25T13:20:56.325Z,94471.88
2022-10-25T13:23:51.656Z,94460.66
2022-10-25T13:26:20.003Z,94462.50
2022-10-25T13:28:49.376Z,94457.13
2022-10-25T13:31:34.148Z,94465.59
2022-10-25T13:34:13.007Z,94462.78
2022-10-25T13:36:55.886Z,94450.66
2022-10-25T13:39:33.736Z,94451.72
2022-10-25T13:42:21.695Z,94456.16
2022-10-25T13:45:03.643Z,94448.28
2022-10-25T13:47:36.835Z,94450.38
2022-10-25T13:50:21.476Z,94448.03
2022-10-25T13:52:57.806Z,94455.16
2022-10-25T13:55:29.385Z,94455.13
2022-10-25T13:57:57.965Z,94446.97
2022-10-25T14:00:27.605Z,94441.44
2022-10-25T14:03:12.734Z,94429.34
2022-10-25T14:06:09.315Z,94425.09
2022-10-25T14:08:51.732Z,94424.03
2022-10-25T14:11:55.349Z,94426.88
2022-10-25T14:14:33.183Z,94425.06
2022-10-25T14:17:08.833Z,94420.81
2022-10-25T14:19:37.839Z,94421.34
2022-10-25T14:22:11.489Z,94432.03
2022-10-25T14:24:38.287Z,94420.44
2022-10-25T14:27:04.986Z,94416.59
2022-10-25T14:29:31.667Z,94420.16
2022-10-25T14:31:58.863Z,94410.75
2022-10-25T14:34:28.310Z,94406.69
2022-10-25T14:36:56.763Z,94404.63
2022-10-25T14:39:25.678Z,94404.59
2022-10-25T14:41:53.477Z,94396.97
2022-10-25T14:44:31.195Z,94405.25
2022-10-25T14:46:59.418Z,94398.75
2022-10-25T14:49:27.438Z,94386.50
2022-10-25T14:52:04.785Z,94383.03
2022-10-25T14:54:33.878Z,94382.44
2022-10-25T14:57:06.507Z,94388.28
2022-10-25T14:59:49.147Z,94373.56
2022-10-25T15:02:30.726Z,94376.72
2022-10-25T15:04:59.213Z,94378.72
2022-10-25T15:07:31.605Z,94378.06
2022-10-25T15:10:00.753Z,94371.84
2022-10-25T15:12:28.853Z,94380.81
2022-10-25T15:14:57.855Z,94366.00
2022-10-25T15:17:30.264Z,94375.06
2022-10-25T15:22:32.145Z,94367.63
2022-10-25T15:24:59.173Z,94373.78
2022-10-25T15:27:38.281Z,94374.06
2022-10-25T15:30:05.286Z,94375.25
2022-10-25T15:32:33.025Z,94368.59
2022-10-25T15:35:01.344Z,94367.47
2022-10-25T15:37:29.070Z,94371.19
2022-10-25T15:39:57.065Z,94370.53
2022-10-25T15:42:25.273Z,94371.63
2022-10-25T15:44:52.148Z,94371.28
2022-10-25T15:47:35.626Z,94367.84
2022-10-25T15:50:07.725Z,94364.00
2022-10-25T15:52:34.425Z,94368.66
2022-10-25T15:55:01.167Z,94371.75
2022-10-25T15:57:27.978Z,94375.75
2022-10-25T15:59:54.735Z,94381.16
2022-10-25T16:02:26.345Z,94384.41
2022-10-25T16:04:53.085Z,94389.19
2022-10-25T16:07:19.926Z,94396.28
2022-10-25T16:09:46.730Z,94392.03
2022-10-25T16:12:20.265Z,94394.06
2022-10-25T16:14:47.804Z,94398.53
2022-10-25T16:17:14.894Z,94394.56
2022-10-25T16:19:41.633Z,94403.97
2022-10-25T16:22:08.383Z,94402.47
2022-10-25T16:24:35.126Z,94407.56
2022-10-25T16:27:01.835Z,94409.91
2022-10-25T16:29:29.696Z,94403.97
2022-10-25T16:31:56.521Z,94401.38
2022-10-25T16:34:23.256Z,94401.75
2022-10-25T16:36:50.871Z,94406.72
2022-10-25T16:39:17.791Z,94405.47
2022-10-25T16:41:45.821Z,94420.25
2022-10-25T16:44:13.710Z,94414.38
2022-10-25T16:46:40.580Z,94406.50
2022-10-25T16:49:09.586Z,94416.00
2022-10-25T16:51:37.106Z,94426.63
2022-10-25T16:54:04.577Z,94421.00
2022-10-25T16:56:31.725Z,94416.81
2022-10-25T16:58:58.551Z,94430.41
2022-10-25T17:01:34.542Z,94438.91
2022-10-25T17:04:02.937Z,94437.06
2022-10-25T17:06:40.738Z,94443.28
2022-10-25T17:09:08.693Z,94434.09
2022-10-25T17:11:36.537Z,94442.69
2022-10-25T17:14:03.929Z,94449.13
2022-10-25T17:16:30.711Z,94447.31
2022-10-25T17:18:57.483Z,94446.44
2022-10-25T17:21:24.303Z,94447.75
2022-10-25T17:23:51.036Z,94446.16
2022-10-25T17:26:17.875Z,94445.56
2022-10-25T17:28:44.891Z,94450.06
2022-10-25T17:31:13.549Z,94450.91
2022-10-25T17:33:40.921Z,94455.53
2022-10-25T17:36:15.789Z,94459.47
2022-10-25T17:38:42.647Z,94462.88
2022-10-25T17:41:09.794Z,94453.59
2022-10-25T17:43:40.825Z,94454.06
2022-10-25T17:46:10.298Z,94458.75
2022-10-25T17:48:36.982Z,94440.53
2022-10-25T17:51:06.415Z,94463.00
2022-10-25T17:53:33.706Z,94456.13
2022-10-25T17:56:12.013Z,94455.03
2022-10-25T17:58:41.025Z,94462.94
2022-10-25T18:01:08.375Z,94469.34
2022-10-25T18:03:35.174Z,94469.97
2022-10-25T18:06:03.476Z,94471.38
2022-10-25T18:08:30.188Z,94466.19
2022-10-25T18:10:56.925Z,94471.28
2022-10-25T18:13:25.106Z,94473.34
2022-10-25T18:15:53.224Z,94478.91
2022-10-25T18:18:20.574Z,94474.91
2022-10-25T18:20:51.409Z,94477.09
2022-10-25T18:23:18.753Z,94473.97
2022-10-25T18:25:52.635Z,94474.72
2022-10-25T18:28:19.435Z,94475.97
2022-10-25T18:30:46.203Z,94470.34
2022-10-25T18:33:14.875Z,94477.94
2022-10-25T18:35:44.686Z,94469.97
2022-10-25T18:38:17.083Z,94476.22
2022-10-25T18:40:44.705Z,94483.25
2022-10-25T18:43:11.366Z,94475.69
2022-10-25T18:45:38.086Z,94479.66
2022-10-25T18:48:05.435Z,94481.25
2022-10-25T18:50:39.183Z,94483.31
2022-10-25T18:53:08.670Z,94491.31
2022-10-25T18:55:35.513Z,94486.13
2022-10-25T18:58:02.423Z,94493.63
2022-10-25T19:00:31.439Z,94486.25
2022-10-25T19:02:58.245Z,94491.84
2022-10-25T19:05:29.061Z,94491.03
2022-10-25T19:07:56.452Z,94485.88
2022-10-25T19:10:23.453Z,94494.66
2022-10-25T19:12:51.593Z,94491.28
2022-10-25T19:15:18.595Z,94486.91
2022-10-25T19:17:45.717Z,94478.34
2022-10-25T19:20:12.525Z,94490.06
2022-10-25T19:22:45.106Z,94492.91
2022-10-25T19:25:12.273Z,94495.47
2022-10-25T19:27:39.305Z,94492.06
2022-10-25T19:30:06.584Z,94488.25
2022-10-25T19:32:33.314Z,94482.25
2022-10-25T19:35:00.181Z,94487.84
2022-10-25T19:37:27.336Z,94490.66
2022-10-25T19:39:56.879Z,94493.47
2022-10-25T19:42:25.513Z,94493.91
2022-10-25T19:44:52.776Z,94494.47
2022-10-25T19:47:19.570Z,94485.91
2022-10-25T19:49:46.844Z,94488.72
2022-10-25T19:52:13.930Z,94495.69
2022-10-25T19:54:42.367Z,94494.28
2022-10-25T19:57:10.067Z,94487.31
2022-10-25T19:59:38.152Z,94468.78
2022-10-25T20:02:06.021Z,94478.34
2022-10-25T20:04:33.093Z,94481.31
2022-10-25T20:06:59.907Z,94491.31
2022-10-25T20:09:29.566Z,94487.91
2022-10-25T20:11:56.794Z,94488.72
2022-10-25T20:14:23.547Z,94484.53
2022-10-25T20:16:50.314Z,94488.34
2022-10-25T20:19:17.000Z,94484.75
2022-10-25T20:21:43.646Z,94493.50
2022-10-25T20:24:10.334Z,94496.69
2022-10-25T20:26:39.418Z,94491.31
2022-10-25T20:29:12.149Z,94491.31
2022-10-25T20:31:40.336Z,94492.53
2022-10-25T20:34:07.077Z,94484.53
2022-10-25T20:36:33.684Z,94492.31
2022-10-25T20:39:00.291Z,94489.50
2022-10-25T20:41:28.865Z,94488.50
2022-10-25T20:44:00.367Z,94494.69
2022-10-25T20:46:27.731Z,94496.50
2022-10-25T20:48:54.812Z,94490.25
2022-10-25T20:51:21.629Z,94491.25
2022-10-25T20:53:49.083Z,94499.47
2022-10-25T20:56:17.024Z,94488.66
2022-10-25T20:58:43.784Z,94489.03
2022-10-25T21:01:11.013Z,94493.63
2022-10-25T21:03:38.493Z,94496.00
2022-10-25T21:06:07.077Z,94482.88
2022-10-25T21:08:34.467Z,94489.03
2022-10-25T21:11:03.837Z,94490.63
2022-10-25T21:13:32.832Z,94482.44
2022-10-25T21:16:02.134Z,94488.56
2022-10-25T21:18:28.893Z,94498.91
2022-10-25T21:21:01.266Z,94490.34
2022-10-25T21:23:28.133Z,94491.75
2022-10-25T21:26:05.549Z,94501.91
2022-10-25T21:28:37.292Z,94494.91
2022-10-25T21:31:06.218Z,94496.88
2022-10-25T21:33:32.795Z,94492.47
2022-10-25T21:36:17.716Z,94499.28
2022-10-25T21:38:44.337Z,94493.09
2022-10-25T21:41:12.187Z,94489.34
2022-10-25T21:43:44.687Z,94497.28
2022-10-25T21:46:12.051Z,94491.72
2022-10-25T21:48:38.747Z,94493.69
2022-10-25T21:51:05.663Z,94498.84
2022-10-25T21:53:32.367Z,94497.50
2022-10-25T21:56:12.528Z,94510.03
2022-10-25T21:58:39.778Z,94501.94
2022-10-25T22:01:08.143Z,94493.56
2022-10-25T22:03:34.765Z,94496.97
2022-10-25T22:06:01.305Z,94486.19
2022-10-25T22:08:27.978Z,94485.31
2022-10-25T22:13:26.351Z,94480.97
2022-10-25T22:15:57.569Z,94474.41
2022-10-25T22:18:24.186Z,94481.13
2022-10-25T22:20:55.960Z,94479.00
2022-10-25T22:23:24.862Z,94478.94
2022-10-25T22:25:51.530Z,94483.81
2022-10-25T22:28:18.122Z,94489.59
2022-10-25T22:30:44.903Z,94490.06
2022-10-25T22:33:11.689Z,94487.44
2022-10-25T22:35:38.318Z,94484.06
2022-10-25T22:38:04.927Z,94480.53
2022-10-25T22:40:31.535Z,94474.75
2022-10-25T22:42:58.138Z,94474.53
2022-10-25T22:45:24.764Z,94481.94
2022-10-25T22:47:52.633Z,94483.25
2022-10-25T22:50:19.221Z,94479.03
2022-10-25T22:52:45.885Z,94483.44
2022-10-25T22:55:12.561Z,94483.03
2022-10-25T22:57:39.153Z,94477.47
2022-10-25T23:00:06.523Z,94478.03
2022-10-25T23:02:34.408Z,94476.38
2022-10-25T23:05:01.114Z,94474.00
2022-10-25T23:07:27.745Z,94475.44
2022-10-25T23:09:54.434Z,94467.66
2022-10-25T23:12:21.020Z,94468.06
2022-10-25T23:14:47.646Z,94459.16
2022-10-25T23:17:14.244Z,94457.53
2022-10-25T23:19:40.943Z,94454.84
2022-10-25T23:22:07.622Z,94461.84
2022-10-25T23:24:34.318Z,94468.63
2022-10-25T23:27:01.008Z,94464.44
2022-10-25T23:29:27.634Z,94471.03
2022-10-25T23:31:54.275Z,94469.41
2022-10-25T23:34:21.059Z,94482.78
2022-10-25T23:36:47.788Z,94473.38
2022-10-25T23:39:14.476Z,94474.97
2022-10-25T23:41:41.172Z,94476.00
2022-10-25T23:44:07.802Z,94466.84
2022-10-25T23:46:34.489Z,94463.75
2022-10-25T23:49:01.118Z,94461.63
2022-10-25T23:51:27.831Z,94450.66
2022-10-25T23:53:54.528Z,94449.50
2022-10-25T23:56:21.253Z,94459.22
2022-10-25T23:58:53.731Z,94446.03
